Worcester, United Kingdom
Current Conditions -  °F | °C
As of 1:50 PM on Wednesday 28 Jan 2015 (Local Time) from EGBJ Reporting Station
Scattered Clouds Scattered Clouds  
Wind Chill: 33°   Ceiling: Unl
Heat Index: 43°   Visibility: 6mi
Dew Point: 30°   Wind: 24mph
Humidity: 61%   Direction: 280°W
Pressure: 29.59"   Gusts: 36mph
Location:  52.19°N, 2.22°W
Report Text: EGBJ 281350Z 28021G31KT 9999 SCT022 06/M01 Q1002
Loading
Personal Weather Stations






























Interactive Weather Map New forecast layout! Learn more

10-Day Weather Forecast

Advertisements
Track Severe Weather on mobile